Time;durP1;ratioP1;P1;durP2;ratioP2;P2;SDS_P1;SDS_P2;PMS_P1;PMS_P2;Temp;Humidity;BMP_temperature;BMP_pressure;BME280_temperature;BME280_humidity;BME280_pressure;Samples;Min_cycle;Max_cycle;Signal;HPM_P1;HPM_P2
2022/02/23 00:02:14;;;;;;;10.30;2.83;;;7.00;99.90;;;7.64;100.00;-19986.81;5110448;28;20226;-61
2022/02/23 00:04:42;;;;;;;5.73;2.47;;;6.90;99.90;;;7.59;100.00;-19985.09;5110634;28;20682;-62
2022/02/23 00:07:11;;;;;;;5.70;2.50;;;6.90;99.90;;;7.47;100.00;-19981.34;5110481;28;20290;-62
2022/02/23 00:09:40;;;;;;;6.53;2.03;;;6.80;99.90;;;7.21;100.00;-19972.47;5111014;28;20239;-61
2022/02/23 00:12:09;;;;;;;7.40;2.30;;;6.70;99.90;;;6.96;100.00;-19963.91;5110375;28;20257;-61
2022/02/23 00:14:37;;;;;;;8.30;2.53;;;6.60;99.90;;;7.03;100.00;-19966.31;5110665;28;20410;-61
2022/02/23 00:17:06;;;;;;;9.90;2.67;;;6.50;99.90;;;6.78;100.00;-19957.75;5110673;28;20561;-63
2022/02/23 00:19:34;;;;;;;7.13;2.50;;;6.30;99.90;;;6.92;100.00;-19962.56;5110741;28;20244;-61
2022/02/23 00:22:04;;;;;;;5.60;2.43;;;6.30;99.90;;;6.94;100.00;-19963.06;5111182;28;20230;-60
2022/02/23 00:24:32;;;;;;;7.60;2.80;;;6.30;99.90;;;7.04;100.00;-19966.66;5110592;28;20250;-60
2022/02/23 00:27:00;;;;;;;6.63;2.10;;;6.30;99.90;;;7.03;100.00;-19966.16;5110416;28;20307;-61
2022/02/23 00:29:28;;;;;;;5.57;1.90;;;6.30;99.90;;;6.93;100.00;-19962.91;5110224;28;20309;-62
2022/02/23 00:31:56;;;;;;;7.97;2.33;;;6.20;99.90;;;7.03;100.00;-19966.16;5110887;28;20232;-61
2022/02/23 00:34:25;;;;;;;9.83;2.07;;;6.30;99.90;;;6.90;100.00;-19961.69;5114510;28;20232;-62
2022/02/23 00:36:55;;;;;;;6.30;1.80;;;6.20;99.90;;;6.86;100.00;-19960.34;5114891;28;20226;-60
2022/02/23 00:39:24;;;;;;;6.37;1.57;;;6.20;99.90;;;6.78;100.00;-19957.59;5114235;28;20245;-61
2022/02/23 00:41:53;;;;;;;8.70;1.93;;;6.10;99.90;;;6.59;100.00;-19951.28;5114310;28;20234;-60
2022/02/23 00:44:21;;;;;;;8.97;1.87;;;6.10;99.90;;;6.92;100.00;-19962.38;5114285;28;20233;-60
2022/02/23 00:46:50;;;;;;;6.93;1.73;;;6.10;99.90;;;6.90;100.00;-19961.69;5114316;28;20219;-61
2022/02/23 00:49:18;;;;;;;5.37;1.83;;;6.10;99.90;;;6.70;100.00;-19955.03;5114246;28;20250;-61
2022/02/23 00:51:47;;;;;;;7.53;1.87;;;6.10;99.90;;;6.68;100.00;-19954.19;5114782;28;20539;-61
2022/02/23 00:54:16;;;;;;;10.67;1.90;;;6.00;99.90;;;6.47;100.00;-19947.00;5113625;28;20233;-61
2022/02/23 00:56:44;;;;;;;8.87;1.80;;;6.00;99.90;;;6.70;100.00;-19954.84;5113735;28;20226;-62
2022/02/23 00:59:12;;;;;;;7.57;1.97;;;6.00;99.90;;;6.77;100.00;-19957.44;5113657;28;20273;-61
2022/02/23 01:01:40;;;;;;;7.73;1.80;;;6.00;99.90;;;6.71;100.00;-19955.22;5113657;28;20247;-61
2022/02/23 01:04:10;;;;;;;4.93;1.77;;;6.00;99.90;;;6.80;100.00;-19958.28;5113961;28;20289;-59
2022/02/23 01:06:38;;;;;;;9.27;2.10;;;6.10;99.90;;;6.63;100.00;-19952.47;5114686;28;20202;-61
2022/02/23 01:09:07;;;;;;;9.17;1.73;;;6.00;99.90;;;6.61;100.00;-19951.97;5113455;28;20234;-61
2022/02/23 01:11:35;;;;;;;8.77;2.17;;;5.90;99.90;;;6.62;100.00;-19952.31;5113705;28;20329;-60
2022/02/23 01:14:04;;;;;;;6.57;1.53;;;5.90;99.90;;;6.57;100.00;-19950.59;5113765;28;20329;-62
2022/02/23 01:16:32;;;;;;;5.93;1.70;;;5.90;99.90;;;6.49;100.00;-19947.84;5113395;28;20751;-61
2022/02/23 01:19:00;;;;;;;5.37;1.53;;;5.90;99.90;;;6.31;100.00;-19941.53;5114423;28;20294;-61
2022/02/23 01:21:28;;;;;;;6.83;1.80;;;5.70;99.90;;;6.32;100.00;-19942.03;5113406;28;20613;-60
2022/02/23 01:23:56;;;;;;;8.33;2.37;;;5.70;99.90;;;6.34;100.00;-19942.56;5113269;28;20244;-60
2022/02/23 01:26:26;;;;;;;6.20;1.87;;;5.70;99.90;;;6.06;100.00;-19933.16;5113404;28;20222;-60
2022/02/23 01:28:54;;;;;;;5.87;1.70;;;5.60;99.90;;;6.09;100.00;-19934.34;5113239;28;20378;-61
2022/02/23 01:31:22;;;;;;;4.40;1.80;;;5.50;99.90;;;6.00;100.00;-19931.13;5113247;28;20288;-61
2022/02/23 01:33:50;;;;;;;10.13;1.80;;;5.40;99.90;;;6.03;100.00;-19932.13;5113845;28;20285;-59
2022/02/23 01:36:18;;;;;;;5.73;1.77;;;5.40;99.90;;;5.97;100.00;-19930.09;5113220;28;20233;-60
2022/02/23 01:38:46;;;;;;;6.73;1.57;;;5.30;99.90;;;5.94;100.00;-19929.22;5113027;28;20228;-61
2022/02/23 01:41:19;;;;;;;6.30;1.60;;;5.30;99.90;;;6.11;100.00;-19934.88;5113203;28;20223;-60
2022/02/23 01:43:49;;;;;;;4.57;1.43;;;5.30;99.90;;;5.99;100.00;-19930.94;5112954;28;20316;-60
2022/02/23 01:46:19;;;;;;;9.03;1.60;;;5.30;99.90;;;6.15;100.00;-19936.41;5113164;28;20286;-60
2022/02/23 01:48:47;;;;;;;5.53;1.30;;;5.30;99.90;;;6.00;100.00;-19931.13;5113646;28;20202;-60
2022/02/23 01:51:15;;;;;;;5.73;1.50;;;5.30;99.90;;;6.13;100.00;-19935.56;5112888;28;20231;-60
2022/02/23 01:53:43;;;;;;;6.43;1.50;;;5.40;99.90;;;6.00;100.00;-19931.13;5112410;28;20325;-60
2022/02/23 01:56:11;;;;;;;4.10;1.20;;;5.30;99.90;;;6.04;100.00;-19932.47;5112746;28;20265;-61
2022/02/23 01:58:39;;;;;;;5.17;1.20;;;5.30;99.90;;;5.99;100.00;-19930.75;5112659;28;20321;-59
2022/02/23 02:01:11;;;;;;;4.40;1.40;;;5.30;99.90;;;5.87;100.00;-19926.84;5113450;28;20209;-60
2022/02/23 02:03:39;;;;;;;5.83;1.40;;;5.20;99.90;;;5.71;100.00;-19921.19;5112977;28;20728;-60
2022/02/23 02:06:07;;;;;;;3.83;1.57;;;5.10;99.90;;;5.73;100.00;-19922.03;5112664;28;20322;-61
2022/02/23 02:08:35;;;;;;;3.67;1.20;;;5.00;99.90;;;5.54;100.00;-19915.38;5112168;28;20233;-61
2022/02/23 02:11:03;;;;;;;4.23;1.50;;;5.00;99.90;;;5.73;100.00;-19922.03;5112573;28;20317;-61
2022/02/23 02:13:31;;;;;;;5.23;1.37;;;4.90;99.90;;;5.56;100.00;-19916.06;5112672;28;20235;-62
2022/02/23 02:15:59;;;;;;;7.40;1.40;;;4.90;99.90;;;5.54;100.00;-19915.56;5113375;28;20203;-60
2022/02/23 02:18:28;;;;;;;4.10;1.40;;;4.90;99.90;;;5.61;100.00;-19917.94;5112215;28;20234;-62
2022/02/23 02:20:56;;;;;;;6.53;1.50;;;4.80;99.90;;;5.80;100.00;-19924.44;5112450;28;20235;-59
2022/02/23 02:23:25;;;;;;;5.70;1.57;;;4.90;99.90;;;5.58;100.00;-19916.75;5111867;28;20229;-61
2022/02/23 02:25:53;;;;;;;8.27;2.30;;;4.90;99.90;;;5.59;100.00;-19917.25;5112217;28;20257;-60
2022/02/23 02:28:21;;;;;;;6.07;1.50;;;4.90;99.90;;;5.71;100.00;-19921.19;5111867;28;20194;-61
2022/02/23 02:30:49;;;;;;;5.87;1.60;;;4.90;99.90;;;5.58;100.00;-19916.75;5112441;28;20734;-61
2022/02/23 02:33:18;;;;;;;4.13;1.27;;;4.90;99.90;;;5.66;100.00;-19919.47;5111689;28;20624;-59
2022/02/23 02:35:46;;;;;;;7.40;1.60;;;4.90;99.90;;;5.67;100.00;-19919.81;5112110;28;20778;-60
2022/02/23 02:38:14;;;;;;;4.23;1.30;;;4.90;99.90;;;5.67;100.00;-19920.00;5111739;28;20254;-60
2022/02/23 02:40:43;;;;;;;3.20;1.27;;;4.90;99.90;;;5.65;100.00;-19919.31;5111807;28;20229;-62
2022/02/23 02:43:11;;;;;;;6.33;1.63;;;4.90;99.90;;;5.64;100.00;-19918.78;5111881;28;20208;-61
2022/02/23 02:45:39;;;;;;;6.23;1.40;;;4.90;99.90;;;5.63;100.00;-19918.47;5112463;28;20236;-61
2022/02/23 02:48:07;;;;;;;5.33;1.43;;;4.90;99.90;;;5.81;100.00;-19924.78;5111451;28;20669;-61
2022/02/23 02:50:35;;;;;;;5.77;1.57;;;4.90;99.90;;;5.74;100.00;-19922.22;5111270;28;20622;-61
2022/02/23 02:53:03;;;;;;;7.17;1.67;;;5.00;99.90;;;5.87;100.00;-19926.84;5111437;28;20395;-60
2022/02/23 02:55:31;;;;;;;4.43;2.10;;;5.10;99.90;;;6.10;100.00;-19934.53;5111030;28;20249;-62
2022/02/23 02:58:00;;;;;;;6.17;1.60;;;5.10;99.90;;;6.22;100.00;-19938.47;5112022;28;20225;-62
2022/02/23 03:00:28;;;;;;;5.50;1.60;;;5.30;99.90;;;6.28;100.00;-19940.50;5111272;28;20222;-62
2022/02/23 03:02:57;;;;;;;5.63;1.40;;;5.30;99.90;;;6.28;100.00;-19940.50;5111474;28;20222;-60
2022/02/23 03:05:29;;;;;;;5.67;1.70;;;5.40;99.90;;;6.05;100.00;-19932.97;5111433;28;20259;-60
2022/02/23 03:07:57;;;;;;;7.60;1.73;;;5.30;99.90;;;6.05;100.00;-19932.97;5111228;28;20601;-61
2022/02/23 03:10:25;;;;;;;9.80;2.10;;;5.30;99.90;;;5.95;100.00;-19929.41;5110811;28;20358;-60
2022/02/23 03:12:53;;;;;;;5.43;1.97;;;5.30;99.90;;;6.26;100.00;-19939.81;5111986;28;20293;-59
2022/02/23 03:15:22;;;;;;;4.20;1.73;;;5.30;99.90;;;6.37;100.00;-19943.75;5111055;28;20309;-62
2022/02/23 03:17:50;;;;;;;6.70;1.77;;;5.40;99.90;;;6.28;100.00;-19940.69;5111347;28;20656;-60
2022/02/23 03:20:18;;;;;;;7.30;1.87;;;5.50;99.90;;;6.26;100.00;-19940.00;5110988;28;20322;-61
2022/02/23 03:22:46;;;;;;;7.17;1.90;;;5.50;99.90;;;6.32;100.00;-19941.88;5111235;28;20255;-61
2022/02/23 03:25:14;;;;;;;6.43;1.70;;;5.50;99.90;;;6.38;100.00;-19944.09;5111038;28;20198;-62
2022/02/23 03:27:42;;;;;;;6.73;2.00;;;5.50;99.90;;;6.60;100.00;-19951.63;5111524;28;20277;-60
2022/02/23 03:30:11;;;;;;;6.13;1.80;;;5.60;99.90;;;6.65;100.00;-19953.16;5110923;28;20225;-62
2022/02/23 03:32:41;;;;;;;6.47;1.83;;;5.60;99.90;;;6.57;100.00;-19950.41;5111298;28;20308;-60
2022/02/23 03:35:10;;;;;;;5.03;1.60;;;5.60;99.90;;;6.53;100.00;-19949.22;5111176;28;20285;-61
2022/02/23 03:37:38;;;;;;;5.67;2.20;;;5.70;99.90;;;6.53;100.00;-19949.06;5110982;28;20227;-61
2022/02/23 03:40:08;;;;;;;8.07;2.50;;;5.60;99.90;;;6.75;100.00;-19956.56;5110974;28;20591;-62
2022/02/23 03:42:36;;;;;;;7.70;2.30;;;5.70;99.90;;;6.67;100.00;-19954.00;5111831;28;20228;-62
2022/02/23 03:45:05;;;;;;;6.03;1.90;;;5.70;99.90;;;6.56;100.00;-19950.25;5110835;28;20624;-60
2022/02/23 03:47:33;;;;;;;7.80;2.13;;;5.70;99.90;;;6.85;100.00;-19960.00;5110195;28;20310;-60
2022/02/23 03:50:03;;;;;;;8.70;2.50;;;5.80;99.90;;;6.75;100.00;-19956.75;5110651;28;20320;-61
2022/02/23 03:52:31;;;;;;;9.13;2.40;;;5.80;99.90;;;6.78;100.00;-19957.75;5110702;28;20222;-61
2022/02/23 03:54:59;;;;;;;8.93;2.20;;;5.90;99.90;;;6.78;100.00;-19957.75;5111351;28;20285;-61
2022/02/23 03:57:27;;;;;;;9.23;2.00;;;5.90;99.90;;;6.90;100.00;-19961.88;5110456;28;20309;-60
2022/02/23 03:59:55;;;;;;;10.03;2.20;;;5.90;99.90;;;6.91;100.00;-19962.22;5110569;28;20225;-60
2022/02/23 04:02:23;;;;;;;11.20;2.40;;;5.90;99.90;;;6.80;100.00;-19958.44;5110591;28;20230;-60
2022/02/23 04:04:51;;;;;;;7.87;2.10;;;5.90;99.90;;;6.98;100.00;-19964.44;5110953;28;20225;-61
2022/02/23 04:07:21;;;;;;;7.33;2.20;;;5.90;99.90;;;6.81;100.00;-19958.63;5112017;28;20205;-60
2022/02/23 04:09:49;;;;;;;9.87;2.57;;;5.90;99.90;;;6.76;100.00;-19957.09;5114982;28;20215;-60
2022/02/23 04:12:19;;;;;;;9.93;2.30;;;5.90;99.90;;;6.61;100.00;-19951.78;5114845;28;20230;-60
2022/02/23 04:14:48;;;;;;;9.80;2.57;;;5.80;99.90;;;6.85;100.00;-19960.16;5114652;28;20227;-61
2022/02/23 04:17:16;;;;;;;9.77;2.57;;;5.90;99.90;;;6.86;100.00;-19960.34;5114633;28;20229;-60
2022/02/23 04:19:46;;;;;;;6.80;2.27;;;5.80;99.90;;;6.77;100.00;-19957.44;5114863;28;20230;-60
2022/02/23 04:22:14;;;;;;;9.13;2.40;;;5.80;99.90;;;6.81;100.00;-19958.63;5114566;28;20671;-60
2022/02/23 04:24:44;;;;;;;9.90;2.37;;;5.90;99.90;;;6.83;100.00;-19959.31;5114960;28;20199;-59
2022/02/23 04:27:12;;;;;;;7.57;2.33;;;5.80;99.90;;;6.66;100.00;-19953.50;5114665;28;20318;-61
2022/02/23 04:29:40;;;;;;;10.90;1.93;;;5.80;99.90;;;6.59;100.00;-19951.09;5114325;28;20725;-60
2022/02/23 04:32:08;;;;;;;7.20;1.97;;;5.70;99.90;;;6.71;100.00;-19955.22;5114920;28;20244;-61
2022/02/23 04:34:36;;;;;;;7.17;2.17;;;5.70;99.90;;;6.63;100.00;-19952.63;5114393;28;20222;-60
2022/02/23 04:37:05;;;;;;;7.50;1.80;;;5.70;99.90;;;6.61;100.00;-19951.97;5115136;28;20198;-60
2022/02/23 04:39:33;;;;;;;7.73;2.30;;;5.70;99.90;;;6.50;100.00;-19948.03;5114473;28;20689;-61
2022/02/23 04:42:02;;;;;;;10.27;2.43;;;5.60;99.90;;;6.28;100.00;-19940.69;5114231;28;20227;-61
2022/02/23 04:44:30;;;;;;;9.00;2.10;;;5.60;99.90;;;6.48;100.00;-19947.34;5113633;28;20309;-60
2022/02/23 04:46:58;;;;;;;7.83;2.10;;;5.50;99.90;;;6.41;100.00;-19944.94;5114121;28;20219;-60
2022/02/23 04:49:26;;;;;;;7.07;2.17;;;5.50;99.90;;;6.66;100.00;-19953.50;5114199;28;20301;-60
2022/02/23 04:51:55;;;;;;;12.07;2.83;;;5.60;99.90;;;6.69;100.00;-19954.69;5114425;28;20216;-59
2022/02/23 04:54:23;;;;;;;9.23;2.40;;;5.60;99.90;;;6.45;100.00;-19946.50;5114075;28;20249;-60
2022/02/23 04:56:51;;;;;;;8.23;2.50;;;5.60;99.90;;;6.48;100.00;-19947.50;5114213;28;20313;-61
2022/02/23 04:59:20;;;;;;;11.30;2.37;;;5.60;99.90;;;6.58;100.00;-19950.94;5113894;28;20945;-60
2022/02/23 05:01:48;;;;;;;8.73;2.70;;;5.60;99.90;;;6.65;100.00;-19953.31;5114004;28;20306;-60
2022/02/23 05:04:16;;;;;;;7.73;2.10;;;5.60;99.90;;;6.52;100.00;-19948.88;5114065;28;20774;-60
2022/02/23 05:06:44;;;;;;;7.77;2.33;;;5.60;99.90;;;6.68;100.00;-19954.19;5114662;28;20210;-61
2022/02/23 05:09:12;;;;;;;8.97;2.70;;;5.60;99.90;;;6.61;100.00;-19951.78;5113420;28;20664;-59
2022/02/23 05:11:40;;;;;;;8.07;2.67;;;5.60;99.90;;;6.55;100.00;-19949.91;5112577;28;20310;-61
2022/02/23 05:14:08;;;;;;;10.13;2.50;;;5.60;99.90;;;6.42;100.00;-19945.47;5112694;28;20232;-61
2022/02/23 05:16:37;;;;;;;9.13;2.47;;;5.60;99.90;;;6.55;100.00;-19949.91;5112384;28;20730;-61
2022/02/23 05:19:05;;;;;;;9.27;2.20;;;5.60;99.90;;;6.68;100.00;-19954.34;5112297;28;20338;-60
2022/02/23 05:21:33;;;;;;;8.93;2.70;;;5.70;99.90;;;6.61;100.00;-19951.78;5112814;28;20240;-60
2022/02/23 05:24:08;;;;;;;7.87;2.33;;;5.70;99.90;;;6.50;100.00;-19948.19;5113936;28;20254;-61
2022/02/23 05:26:36;;;;;;;7.40;2.60;;;5.70;99.90;;;6.62;100.00;-19952.31;5114167;28;20687;-60
2022/02/23 05:29:05;;;;;;;13.60;2.93;;;5.60;99.90;;;6.48;100.00;-19947.50;5112105;28;20223;-59
2022/02/23 05:31:33;;;;;;;7.83;2.43;;;5.60;99.90;;;6.57;100.00;-19950.59;5112041;28;20246;-60
2022/02/23 05:34:02;;;;;;;11.63;3.17;;;5.60;99.90;;;6.41;100.00;-19944.94;5112948;28;20209;-60
2022/02/23 05:36:30;;;;;;;11.03;2.53;;;5.50;99.90;;;6.26;100.00;-19940.00;5112330;28;20719;-60
2022/02/23 05:38:58;;;;;;;8.60;2.27;;;5.50;99.90;;;6.14;100.00;-19936.06;5111352;28;20225;-61
2022/02/23 05:41:26;;;;;;;9.00;2.40;;;5.40;99.90;;;6.21;100.00;-19938.13;5111734;28;20231;-60
2022/02/23 05:43:54;;;;;;;8.67;2.43;;;5.40;99.90;;;6.15;100.00;-19936.41;5111601;28;20578;-61
2022/02/23 05:46:22;;;;;;;10.87;2.40;;;5.40;99.90;;;6.25;100.00;-19939.47;5111590;28;20210;-60
2022/02/23 05:48:50;;;;;;;13.40;2.87;;;5.40;99.90;;;6.42;100.00;-19945.47;5112703;28;20281;-60
2022/02/23 05:51:28;;;;;;;10.17;2.10;;;5.40;99.90;;;6.24;100.00;-19939.31;5111553;28;20305;-60
2022/02/23 05:53:58;;;;;;;9.30;2.30;;;5.40;99.90;;;6.37;100.00;-19943.75;5111442;28;20221;-59
2022/02/23 05:56:27;;;;;;;11.53;2.60;;;5.50;99.90;;;6.42;100.00;-19945.47;5111685;28;20229;-61
2022/02/23 05:58:55;;;;;;;10.37;2.70;;;5.50;99.90;;;6.41;100.00;-19945.13;5111775;28;20318;-61
2022/02/23 06:01:23;;;;;;;11.30;2.40;;;5.50;99.90;;;6.43;100.00;-19945.81;5111327;28;20206;-60
2022/02/23 06:03:52;;;;;;;8.17;2.33;;;5.50;99.90;;;6.51;100.00;-19948.53;5112246;28;20201;-62
2022/02/23 06:06:20;;;;;;;9.33;2.70;;;5.50;99.90;;;6.56;100.00;-19950.25;5111442;28;20775;-61
2022/02/23 06:08:50;;;;;;;12.40;3.07;;;5.60;99.90;;;6.54;100.00;-19949.41;5110742;28;20306;-61
2022/02/23 06:11:24;;;;;;;9.53;2.53;;;5.60;99.90;;;6.59;100.00;-19951.28;5075806;28;1031794;-61
2022/02/23 06:13:53;;;;;;;8.47;2.23;;;5.60;99.90;;;6.45;100.00;-19946.50;5112742;28;20306;-61
2022/02/23 06:16:23;;;;;;;6.63;2.23;;;5.60;99.90;;;6.52;100.00;-19948.88;5112231;28;20285;-60
2022/02/23 06:18:54;;;;;;;8.20;2.27;;;5.60;99.90;;;6.31;100.00;-19941.69;5113086;28;20285;-59
2022/02/23 06:21:23;;;;;;;12.27;3.27;;;5.60;99.90;;;6.37;100.00;-19943.75;5112061;28;20229;-62
2022/02/23 06:23:54;;;;;;;7.67;2.47;;;5.60;99.90;;;6.58;100.00;-19950.94;5112192;28;20780;-61
2022/02/23 06:26:22;;;;;;;10.03;2.60;;;5.60;99.90;;;6.53;100.00;-19949.22;5112340;28;20259;-60
2022/02/23 06:28:51;;;;;;;10.57;2.20;;;5.60;99.90;;;6.63;100.00;-19952.47;5112563;28;20299;-60
2022/02/23 06:31:22;;;;;;;11.00;2.33;;;5.70;99.90;;;6.64;100.00;-19952.81;5111455;28;20215;-60
2022/02/23 06:33:50;;;;;;;10.17;2.33;;;5.70;99.90;;;6.76;100.00;-19957.09;5112603;28;20318;-61
2022/02/23 06:36:19;;;;;;;8.23;2.43;;;5.70;99.90;;;6.81;100.00;-19958.63;5111307;28;20308;-60
2022/02/23 06:38:48;;;;;;;5.07;2.23;;;5.80;99.90;;;6.66;100.00;-19953.50;5111401;28;20314;-61
2022/02/23 06:41:22;;;;;;;9.73;2.53;;;5.80;99.90;;;6.81;100.00;-19958.63;5111953;28;20722;-60
2022/02/23 06:43:50;;;;;;;6.77;2.00;;;5.80;99.90;;;6.77;100.00;-19957.44;5112051;28;20297;-61
2022/02/23 06:46:20;;;;;;;6.17;2.17;;;5.80;99.90;;;6.82;100.00;-19959.13;5111965;28;20208;-61
2022/02/23 06:48:49;;;;;;;11.77;2.43;;;5.90;99.90;;;6.94;100.00;-19963.25;5112342;28;20202;-61
2022/02/23 06:51:20;;;;;;;10.43;5.00;;;6.00;99.90;;;6.95;100.00;-19963.56;5111468;28;20229;-61
2022/02/23 06:53:50;;;;;;;6.20;2.40;;;6.00;99.90;;;6.95;100.00;-19963.56;5111444;28;20249;-61
2022/02/23 06:56:20;;;;;;;10.23;2.40;;;6.00;99.90;;;6.90;100.00;-19961.88;5111665;28;20230;-60
2022/02/23 06:58:51;;;;;;;8.30;2.30;;;6.00;99.90;;;7.03;100.00;-19966.31;5111328;28;20305;-60
2022/02/23 07:01:21;;;;;;;9.00;1.93;;;6.00;99.90;;;7.01;100.00;-19965.63;5111465;28;20302;-60
2022/02/23 07:03:50;;;;;;;6.43;2.07;;;6.10;99.90;;;7.02;100.00;-19965.78;5111601;28;20190;-62
2022/02/23 07:06:18;;;;;;;5.17;2.30;;;6.10;99.90;;;7.02;100.00;-19965.97;5111238;28;20306;-61
2022/02/23 07:08:50;;;;;;;7.10;1.93;;;6.10;99.90;;;7.20;100.00;-19971.94;5110888;28;20306;-61
2022/02/23 07:11:20;;;;;;;6.50;2.33;;;6.20;99.90;;;7.15;100.00;-19970.41;5111033;28;20237;-61
2022/02/23 07:13:48;;;;;;;8.20;2.80;;;6.20;99.90;;;7.14;100.00;-19970.06;5110585;28;20685;-62
2022/02/23 07:16:16;;;;;;;7.67;2.20;;;6.20;99.90;;;7.19;100.00;-19971.78;5111399;28;20195;-60
2022/02/23 07:18:44;;;;;;;6.40;2.00;;;6.30;99.90;;;7.32;100.00;-19976.22;5111962;28;20199;-61
2022/02/23 07:21:12;;;;;;;9.23;2.17;;;6.30;99.90;;;7.47;100.00;-19981.34;5111198;28;20748;-59
2022/02/23 07:23:41;;;;;;;6.73;2.30;;;6.40;99.90;;;7.48;100.00;-19981.53;5111009;28;20227;-61
2022/02/23 07:26:09;;;;;;;7.93;2.10;;;6.40;99.90;;;7.41;100.00;-19979.13;5111057;28;20558;-61
2022/02/23 07:28:39;;;;;;;7.07;2.10;;;6.40;99.90;;;7.64;100.00;-19986.81;5110526;28;20280;-62
2022/02/23 07:31:10;;;;;;;8.53;2.53;;;6.50;99.90;;;7.41;100.00;-19979.31;5111011;28;20183;-60
2022/02/23 07:33:39;;;;;;;8.63;2.50;;;6.50;99.90;;;7.31;100.00;-19975.88;5111108;28;20695;-61
2022/02/23 07:36:08;;;;;;;10.50;2.57;;;6.50;99.90;;;7.48;100.00;-19981.53;5111100;28;20223;-63
2022/02/23 07:38:38;;;;;;;6.20;2.23;;;6.50;99.90;;;7.45;100.00;-19980.50;5110572;28;20276;-62
2022/02/23 07:41:07;;;;;;;6.77;2.20;;;6.50;99.90;;;7.52;100.00;-19982.72;5107269;28;20238;-62
2022/02/23 07:43:58;;;;;;;7.33;2.50;;;6.50;99.90;;;7.62;100.00;-19986.13;5109628;28;20254;-63
2022/02/23 07:46:27;;;;;;;8.73;2.23;;;6.60;99.90;;;7.67;100.00;-19988.00;5110770;28;20231;-61
2022/02/23 07:49:00;;;;;;;11.20;2.13;;;6.70;99.90;;;7.69;100.00;-19988.53;5111251;28;20301;-60
2022/02/23 07:51:30;;;;;;;6.50;1.90;;;6.70;99.90;;;7.84;100.00;-19993.66;5110476;28;20224;-61
2022/02/23 07:53:58;;;;;;;9.70;2.40;;;6.80;99.90;;;7.87;100.00;-19994.69;5109994;28;20227;-61
2022/02/23 07:56:27;;;;;;;6.30;2.10;;;6.90;99.90;;;7.89;100.00;-19995.53;5110777;28;20230;-62
2022/02/23 07:58:57;;;;;;;13.13;2.23;;;6.90;99.90;;;7.97;100.00;-19998.25;5110608;28;20253;-60
2022/02/23 08:01:30;;;;;;;7.23;2.10;;;7.00;99.90;;;7.87;100.00;-19994.84;5110574;28;20314;-61
2022/02/23 08:03:58;;;;;;;6.80;2.13;;;7.00;99.90;;;8.11;100.00;-20002.88;5110807;28;20188;-61
2022/02/23 08:06:26;;;;;;;9.90;2.53;;;7.10;99.90;;;8.18;100.00;-20005.44;5110525;28;20682;-62
2022/02/23 08:08:56;;;;;;;7.33;2.30;;;7.10;99.90;;;8.33;100.00;-20010.41;5110050;28;20306;-59
2022/02/23 08:11:24;;;;;;;6.50;2.37;;;7.20;99.90;;;8.33;100.00;-20010.41;5110256;28;20226;-60
2022/02/23 08:13:58;;;;;;;7.40;2.37;;;7.20;99.90;;;8.49;100.00;-20016.03;5109955;28;20211;-59
2022/02/23 08:19:34;;;;;;;5.27;1.90;;;7.40;99.90;;;8.77;100.00;-20025.25;5110098;28;20274;-59
2022/02/23 08:22:08;;;;;;;10.17;2.30;;;7.50;99.90;;;8.95;100.00;-20031.41;5111123;28;20274;-60
2022/02/23 08:24:39;;;;;;;11.70;2.53;;;7.70;99.90;;;8.90;100.00;-20029.88;5111713;28;20222;-59
2022/02/23 08:27:11;;;;;;;7.10;2.10;;;7.70;99.90;;;9.01;100.00;-20033.63;5110390;28;20723;-59
2022/02/23 08:29:40;;;;;;;4.70;2.10;;;7.70;99.90;;;9.06;98.44;-20035.19;5110009;28;20226;-60
2022/02/23 08:32:13;;;;;;;5.90;2.20;;;7.80;99.90;;;9.13;96.71;-20037.72;5101351;28;20224;-60
2022/02/23 08:34:45;;;;;;;7.33;2.03;;;7.90;99.90;;;9.17;96.69;-20039.09;5108045;28;20576;-60
2022/02/23 08:37:16;;;;;;;6.27;1.97;;;7.90;99.90;;;9.02;95.37;-20033.97;5110180;28;20219;-56
2022/02/23 08:39:46;;;;;;;7.03;2.07;;;7.90;99.90;;;9.10;94.82;-20036.72;5110679;28;20219;-55
2022/02/23 08:42:16;;;;;;;6.07;2.20;;;8.00;99.90;;;9.16;95.87;-20038.75;5110097;28;20231;-56
2022/02/23 08:44:46;;;;;;;7.07;1.80;;;8.00;99.90;;;9.03;94.83;-20034.16;5110049;28;20665;-61
2022/02/23 08:47:15;;;;;;;7.13;1.90;;;8.00;99.90;;;9.17;94.87;-20038.94;5109855;28;20750;-60
2022/02/23 08:49:43;;;;;;;13.40;2.37;;;8.00;99.90;;;9.06;94.02;-20035.34;5110239;28;20318;-60
2022/02/23 08:52:11;;;;;;;7.23;2.30;;;8.00;99.90;;;9.19;93.16;-20039.63;5109747;28;20235;-60
2022/02/23 08:54:39;;;;;;;8.00;2.10;;;8.00;99.90;;;9.25;91.94;-20041.84;5113253;28;20246;-61
2022/02/23 08:57:08;;;;;;;8.87;2.53;;;8.10;99.90;;;9.33;94.66;-20044.56;5113585;28;20227;-60
2022/02/23 08:59:36;;;;;;;6.97;2.43;;;8.10;99.90;;;9.30;91.18;-20043.53;5113462;28;20289;-60
2022/02/23 09:02:05;;;;;;;7.50;2.23;;;8.20;99.90;;;9.38;93.44;-20046.09;5113686;28;20227;-60
2022/02/23 09:04:35;;;;;;;6.83;2.23;;;8.20;99.90;;;9.60;92.32;-20053.78;5113736;28;20297;-61
2022/02/23 09:07:04;;;;;;;9.33;2.33;;;8.40;99.90;;;9.67;92.17;-20056.00;5114074;28;20199;-60
2022/02/23 09:09:32;;;;;;;8.73;2.77;;;8.50;99.90;;;9.85;89.11;-20062.34;5113015;28;20246;-60
2022/02/23 09:12:03;;;;;;;8.07;1.90;;;8.60;99.90;;;9.80;88.96;-20060.47;5113443;28;20587;-60
2022/02/23 09:14:31;;;;;;;5.83;2.30;;;8.60;99.90;;;9.89;89.98;-20063.69;5113446;28;20350;-60
2022/02/23 09:16:59;;;;;;;8.90;2.30;;;8.60;99.90;;;9.99;86.87;-20066.78;5113517;28;20715;-63
2022/02/23 09:19:27;;;;;;;10.27;2.73;;;8.80;99.90;;;9.95;88.38;-20065.41;5113137;28;20242;-61
2022/02/23 09:21:57;;;;;;;6.70;1.77;;;8.80;99.90;;;9.88;86.70;-20063.34;5113850;28;20314;-60
2022/02/23 09:24:25;;;;;;;5.73;2.07;;;8.70;99.90;;;9.97;86.72;-20066.09;5112656;28;20227;-61
2022/02/23 09:26:54;;;;;;;9.53;2.37;;;8.80;99.90;;;10.18;85.98;-20073.28;5113177;28;20318;-60
2022/02/23 09:29:22;;;;;;;6.23;1.80;;;8.90;99.90;;;10.39;85.17;-20080.44;5095891;28;20308;-58
2022/02/23 09:31:50;;;;;;;7.10;1.63;;;9.10;99.90;;;10.28;83.30;-20076.88;5098560;28;20707;-56
2022/02/23 09:34:19;;;;;;;5.77;2.03;;;9.10;99.90;;;10.21;84.56;-20074.31;5098163;28;20203;-56
2022/02/23 09:36:47;;;;;;;7.17;2.10;;;9.00;99.90;;;9.92;84.42;-20064.56;5093631;28;20306;-54
2022/02/23 09:39:16;;;;;;;5.07;1.67;;;9.00;99.90;;;9.52;85.28;-20050.91;5113002;28;20325;-59
2022/02/23 09:41:47;;;;;;;10.27;2.33;;;8.60;99.90;;;9.46;85.75;-20048.84;5113221;28;20334;-61
2022/02/23 09:44:18;;;;;;;5.00;1.70;;;8.50;99.90;;;9.22;86.34;-20040.63;5113213;28;20243;-60
2022/02/23 09:46:47;;;;;;;7.10;2.20;;;8.30;99.90;;;9.39;87.30;-20046.63;5113209;28;20226;-59
2022/02/23 09:49:15;;;;;;;4.90;2.30;;;8.30;99.90;;;9.70;86.80;-20057.03;5113051;28;20278;-60
2022/02/23 09:51:43;;;;;;;6.50;1.87;;;8.50;99.90;;;10.34;84.96;-20078.75;5113479;28;20295;-60
2022/02/23 09:54:11;;;;;;;11.03;2.30;;;8.80;99.90;;;10.74;84.24;-20092.56;5112746;28;20219;-56
2022/02/23 09:56:40;;;;;;;9.87;2.20;;;9.10;99.90;;;11.15;79.11;-20106.41;5113101;28;21018;-54
2022/02/23 09:59:12;;;;;;;7.30;2.10;;;9.40;99.90;;;11.33;79.15;-20112.38;5112789;28;20220;-57
2022/02/23 10:01:41;;;;;;;5.97;2.07;;;9.70;99.90;;;11.49;79.17;-20118.03;5112936;28;20254;-57
2022/02/23 10:04:09;;;;;;;6.40;2.13;;;9.80;99.90;;;11.34;76.22;-20112.72;5112649;28;20291;-61
2022/02/23 10:06:39;;;;;;;5.43;2.00;;;9.90;99.90;;;11.43;77.05;-20115.81;5112970;28;20199;-59
2022/02/23 10:09:09;;;;;;;9.43;2.13;;;9.90;99.90;;;11.60;64.73;-20121.78;5112353;28;20666;-60
2022/02/23 10:11:41;;;;;;;7.73;2.07;;;10.00;99.90;;;11.47;61.25;-20117.16;5113001;28;20595;-60
2022/02/23 10:14:12;;;;;;;8.03;2.33;;;10.00;99.90;;;11.37;62.22;-20113.91;5112647;28;20311;-61
2022/02/23 10:16:43;;;;;;;6.53;2.23;;;10.00;99.90;;;11.03;62.50;-20102.31;5112767;28;20245;-60
2022/02/23 10:19:14;;;;;;;6.73;1.93;;;9.90;99.90;;;10.81;63.75;-20094.97;5112783;28;20218;-61
2022/02/23 10:21:55;;;;;;;6.77;2.07;;;9.70;99.90;;;10.52;64.53;-20084.88;5112512;28;20310;-60
2022/02/23 10:24:29;;;;;;;5.73;1.87;;;9.40;99.90;;;10.62;63.06;-20088.47;5105304;28;20258;-60
2022/02/23 10:27:04;;;;;;;6.20;2.00;;;9.40;99.90;;;10.73;63.25;-20092.22;5092158;28;20314;-62
2022/02/23 10:29:36;;;;;;;7.87;2.47;;;9.50;99.90;;;10.63;64.53;-20088.66;5111121;28;20305;-60